sensor_id;sensor_type;location;lat;lon;timestamp;P1;durP1;ratioP1;P2;durP2;ratioP2
41309;SDS011;27057;51.438;-0.010;2022-11-14T00:00:44;80.28;;;27.23;;
41309;SDS011;27057;51.438;-0.010;2022-11-14T00:03:30;77.22;;;26.77;;
41309;SDS011;27057;51.438;-0.010;2022-11-14T00:06:16;60.72;;;24.50;;
41309;SDS011;27057;51.438;-0.010;2022-11-14T00:09:02;225.82;;;31.92;;
41309;SDS011;27057;51.438;-0.010;2022-11-14T00:11:48;115.32;;;24.98;;
41309;SDS011;27057;51.438;-0.010;2022-11-14T00:14:34;115.88;;;27.85;;
41309;SDS011;27057;51.438;-0.010;2022-11-14T00:17:20;79.90;;;23.95;;
41309;SDS011;27057;51.438;-0.010;2022-11-14T00:20:07;64.05;;;22.75;;
41309;SDS011;27057;51.438;-0.010;2022-11-14T00:22:55;62.05;;;22.48;;
41309;SDS011;27057;51.438;-0.010;2022-11-14T00:25:42;124.00;;;23.95;;
41309;SDS011;27057;51.438;-0.010;2022-11-14T00:28:29;76.32;;;21.30;;
41309;SDS011;27057;51.438;-0.010;2022-11-14T00:31:15;70.00;;;21.25;;
41309;SDS011;27057;51.438;-0.010;2022-11-14T00:34:01;47.80;;;21.02;;
41309;SDS011;27057;51.438;-0.010;2022-11-14T00:36:47;66.10;;;22.88;;
41309;SDS011;27057;51.438;-0.010;2022-11-14T00:39:33;44.08;;;20.63;;
41309;SDS011;27057;51.438;-0.010;2022-11-14T00:42:19;45.50;;;20.70;;
41309;SDS011;27057;51.438;-0.010;2022-11-14T00:45:05;42.13;;;20.25;;
41309;SDS011;27057;51.438;-0.010;2022-11-14T00:47:51;40.30;;;19.90;;
41309;SDS011;27057;51.438;-0.010;2022-11-14T00:50:38;35.50;;;19.17;;
41309;SDS011;27057;51.438;-0.010;2022-11-14T00:53:24;35.85;;;20.55;;
41309;SDS011;27057;51.438;-0.010;2022-11-14T00:56:10;37.65;;;19.95;;
41309;SDS011;27057;51.438;-0.010;2022-11-14T00:58:56;39.42;;;18.92;;
41309;SDS011;27057;51.438;-0.010;2022-11-14T01:01:42;39.38;;;19.52;;
41309;SDS011;27057;51.438;-0.010;2022-11-14T01:04:27;98.57;;;28.20;;
41309;SDS011;27057;51.438;-0.010;2022-11-14T01:07:13;52.78;;;20.95;;
41309;SDS011;27057;51.438;-0.010;2022-11-14T01:09:59;58.38;;;21.95;;
41309;SDS011;27057;51.438;-0.010;2022-11-14T01:12:45;86.13;;;22.52;;
41309;SDS011;27057;51.438;-0.010;2022-11-14T01:15:31;49.00;;;21.98;;
41309;SDS011;27057;51.438;-0.010;2022-11-14T01:18:19;51.10;;;21.85;;
41309;SDS011;27057;51.438;-0.010;2022-11-14T01:21:06;45.45;;;22.27;;
41309;SDS011;27057;51.438;-0.010;2022-11-14T01:23:53;43.65;;;21.92;;
41309;SDS011;27057;51.438;-0.010;2022-11-14T01:26:39;45.30;;;21.70;;
41309;SDS011;27057;51.438;-0.010;2022-11-14T01:29:25;43.53;;;22.05;;
41309;SDS011;27057;51.438;-0.010;2022-11-14T01:32:11;55.08;;;24.40;;
41309;SDS011;27057;51.438;-0.010;2022-11-14T01:34:57;71.28;;;23.52;;
41309;SDS011;27057;51.438;-0.010;2022-11-14T01:37:43;110.50;;;24.92;;
41309;SDS011;27057;51.438;-0.010;2022-11-14T01:40:29;86.18;;;25.83;;
41309;SDS011;27057;51.438;-0.010;2022-11-14T01:46:27;157.85;;;28.65;;
41309;SDS011;27057;51.438;-0.010;2022-11-14T01:49:23;106.30;;;24.67;;
41309;SDS011;27057;51.438;-0.010;2022-11-14T01:52:17;89.70;;;24.48;;
41309;SDS011;27057;51.438;-0.010;2022-11-14T01:55:08;107.00;;;27.38;;
41309;SDS011;27057;51.438;-0.010;2022-11-14T01:57:55;106.93;;;26.48;;
41309;SDS011;27057;51.438;-0.010;2022-11-14T02:00:42;123.78;;;27.90;;
41309;SDS011;27057;51.438;-0.010;2022-11-14T02:03:28;92.15;;;28.02;;
41309;SDS011;27057;51.438;-0.010;2022-11-14T02:06:15;114.00;;;28.92;;
41309;SDS011;27057;51.438;-0.010;2022-11-14T02:09:04;144.25;;;30.50;;
41309;SDS011;27057;51.438;-0.010;2022-11-14T02:11:52;107.35;;;27.73;;
41309;SDS011;27057;51.438;-0.010;2022-11-14T02:14:40;80.97;;;30.20;;
41309;SDS011;27057;51.438;-0.010;2022-11-14T02:17:29;65.78;;;29.55;;
41309;SDS011;27057;51.438;-0.010;2022-11-14T02:20:20;98.53;;;31.33;;
41309;SDS011;27057;51.438;-0.010;2022-11-14T02:23:09;97.60;;;26.33;;
41309;SDS011;27057;51.438;-0.010;2022-11-14T02:25:56;92.83;;;28.10;;
41309;SDS011;27057;51.438;-0.010;2022-11-14T02:28:42;70.15;;;26.90;;
41309;SDS011;27057;51.438;-0.010;2022-11-14T02:31:28;74.47;;;27.17;;
41309;SDS011;27057;51.438;-0.010;2022-11-14T02:34:14;68.03;;;26.92;;
41309;SDS011;27057;51.438;-0.010;2022-11-14T02:37:04;67.50;;;27.85;;
41309;SDS011;27057;51.438;-0.010;2022-11-14T02:39:50;60.08;;;24.42;;
41309;SDS011;27057;51.438;-0.010;2022-11-14T02:42:36;64.07;;;27.27;;
41309;SDS011;27057;51.438;-0.010;2022-11-14T02:45:22;63.78;;;26.25;;
41309;SDS011;27057;51.438;-0.010;2022-11-14T02:48:09;66.53;;;25.13;;
41309;SDS011;27057;51.438;-0.010;2022-11-14T02:50:55;77.85;;;25.08;;
41309;SDS011;27057;51.438;-0.010;2022-11-14T02:53:41;63.45;;;25.55;;
41309;SDS011;27057;51.438;-0.010;2022-11-14T02:56:27;61.42;;;26.17;;
41309;SDS011;27057;51.438;-0.010;2022-11-14T02:59:13;60.88;;;26.92;;
41309;SDS011;27057;51.438;-0.010;2022-11-14T03:01:59;61.83;;;24.50;;
41309;SDS011;27057;51.438;-0.010;2022-11-14T03:04:45;65.28;;;26.92;;
41309;SDS011;27057;51.438;-0.010;2022-11-14T03:07:31;62.42;;;28.15;;
41309;SDS011;27057;51.438;-0.010;2022-11-14T03:10:17;68.80;;;25.52;;
41309;SDS011;27057;51.438;-0.010;2022-11-14T03:13:03;68.85;;;28.20;;
41309;SDS011;27057;51.438;-0.010;2022-11-14T03:15:48;67.95;;;27.80;;
41309;SDS011;27057;51.438;-0.010;2022-11-14T03:18:34;63.88;;;26.60;;
41309;SDS011;27057;51.438;-0.010;2022-11-14T03:21:21;65.95;;;24.88;;
41309;SDS011;27057;51.438;-0.010;2022-11-14T03:24:08;93.73;;;28.33;;
41309;SDS011;27057;51.438;-0.010;2022-11-14T03:26:54;61.90;;;26.88;;
41309;SDS011;27057;51.438;-0.010;2022-11-14T03:29:40;96.30;;;26.50;;
41309;SDS011;27057;51.438;-0.010;2022-11-14T03:32:25;102.05;;;26.80;;
41309;SDS011;27057;51.438;-0.010;2022-11-14T03:35:11;94.20;;;28.55;;
41309;SDS011;27057;51.438;-0.010;2022-11-14T03:37:57;121.20;;;26.92;;
41309;SDS011;27057;51.438;-0.010;2022-11-14T03:40:43;97.47;;;28.35;;
41309;SDS011;27057;51.438;-0.010;2022-11-14T03:43:30;94.25;;;28.58;;
41309;SDS011;27057;51.438;-0.010;2022-11-14T03:46:17;108.82;;;27.95;;
41309;SDS011;27057;51.438;-0.010;2022-11-14T03:49:03;97.47;;;28.77;;
41309;SDS011;27057;51.438;-0.010;2022-11-14T03:51:49;138.10;;;29.95;;
41309;SDS011;27057;51.438;-0.010;2022-11-14T03:54:35;105.78;;;29.00;;
41309;SDS011;27057;51.438;-0.010;2022-11-14T03:57:21;141.32;;;29.70;;
41309;SDS011;27057;51.438;-0.010;2022-11-14T04:00:07;89.43;;;28.27;;
41309;SDS011;27057;51.438;-0.010;2022-11-14T04:02:54;101.45;;;28.38;;
41309;SDS011;27057;51.438;-0.010;2022-11-14T04:05:42;83.15;;;27.95;;
41309;SDS011;27057;51.438;-0.010;2022-11-14T04:08:29;98.60;;;28.58;;
41309;SDS011;27057;51.438;-0.010;2022-11-14T04:11:16;75.03;;;31.75;;
41309;SDS011;27057;51.438;-0.010;2022-11-14T04:14:03;115.78;;;29.50;;
41309;SDS011;27057;51.438;-0.010;2022-11-14T04:16:48;82.97;;;28.23;;
41309;SDS011;27057;51.438;-0.010;2022-11-14T04:19:34;68.85;;;26.65;;
41309;SDS011;27057;51.438;-0.010;2022-11-14T04:22:20;59.10;;;26.48;;
41309;SDS011;27057;51.438;-0.010;2022-11-14T04:25:06;62.03;;;26.85;;
41309;SDS011;27057;51.438;-0.010;2022-11-14T04:27:53;70.25;;;25.90;;
41309;SDS011;27057;51.438;-0.010;2022-11-14T04:30:39;63.40;;;27.20;;
41309;SDS011;27057;51.438;-0.010;2022-11-14T04:33:25;71.32;;;29.23;;
41309;SDS011;27057;51.438;-0.010;2022-11-14T04:36:11;73.22;;;28.73;;
41309;SDS011;27057;51.438;-0.010;2022-11-14T04:38:57;72.75;;;28.45;;
41309;SDS011;27057;51.438;-0.010;2022-11-14T04:41:43;93.97;;;29.73;;
41309;SDS011;27057;51.438;-0.010;2022-11-14T04:44:29;80.10;;;30.45;;
41309;SDS011;27057;51.438;-0.010;2022-11-14T04:47:15;79.85;;;31.00;;
41309;SDS011;27057;51.438;-0.010;2022-11-14T04:50:01;62.53;;;28.67;;
41309;SDS011;27057;51.438;-0.010;2022-11-14T04:52:51;64.03;;;27.43;;
41309;SDS011;27057;51.438;-0.010;2022-11-14T04:55:38;62.25;;;26.27;;
41309;SDS011;27057;51.438;-0.010;2022-11-14T04:58:24;60.83;;;26.95;;
41309;SDS011;27057;51.438;-0.010;2022-11-14T05:01:11;51.67;;;24.80;;
41309;SDS011;27057;51.438;-0.010;2022-11-14T05:06:44;46.17;;;23.05;;
41309;SDS011;27057;51.438;-0.010;2022-11-14T05:09:29;51.97;;;23.85;;
41309;SDS011;27057;51.438;-0.010;2022-11-14T05:12:15;47.45;;;24.00;;
41309;SDS011;27057;51.438;-0.010;2022-11-14T05:15:01;44.80;;;22.58;;
41309;SDS011;27057;51.438;-0.010;2022-11-14T05:17:47;46.45;;;23.48;;
41309;SDS011;27057;51.438;-0.010;2022-11-14T05:20:34;50.53;;;23.65;;
41309;SDS011;27057;51.438;-0.010;2022-11-14T05:23:20;49.72;;;25.30;;
41309;SDS011;27057;51.438;-0.010;2022-11-14T05:26:08;50.75;;;23.17;;
41309;SDS011;27057;51.438;-0.010;2022-11-14T05:28:55;49.63;;;24.90;;
41309;SDS011;27057;51.438;-0.010;2022-11-14T05:31:41;41.35;;;21.70;;
41309;SDS011;27057;51.438;-0.010;2022-11-14T05:34:27;41.85;;;22.08;;
41309;SDS011;27057;51.438;-0.010;2022-11-14T05:37:13;50.22;;;24.90;;
41309;SDS011;27057;51.438;-0.010;2022-11-14T05:39:59;46.67;;;23.10;;
41309;SDS011;27057;51.438;-0.010;2022-11-14T05:42:45;42.60;;;22.08;;
41309;SDS011;27057;51.438;-0.010;2022-11-14T05:45:31;40.08;;;22.08;;
41309;SDS011;27057;51.438;-0.010;2022-11-14T05:48:17;36.60;;;20.48;;
41309;SDS011;27057;51.438;-0.010;2022-11-14T05:51:03;38.97;;;21.50;;
41309;SDS011;27057;51.438;-0.010;2022-11-14T05:53:50;41.97;;;21.42;;
41309;SDS011;27057;51.438;-0.010;2022-11-14T05:56:36;48.17;;;22.58;;
41309;SDS011;27057;51.438;-0.010;2022-11-14T05:59:22;42.60;;;21.17;;
41309;SDS011;27057;51.438;-0.010;2022-11-14T06:02:08;42.90;;;21.20;;
41309;SDS011;27057;51.438;-0.010;2022-11-14T06:04:54;41.20;;;21.75;;
41309;SDS011;27057;51.438;-0.010;2022-11-14T06:07:40;40.58;;;20.75;;
41309;SDS011;27057;51.438;-0.010;2022-11-14T06:10:26;38.28;;;19.88;;
41309;SDS011;27057;51.438;-0.010;2022-11-14T06:13:12;41.15;;;20.88;;
41309;SDS011;27057;51.438;-0.010;2022-11-14T06:16:01;46.65;;;20.50;;
41309;SDS011;27057;51.438;-0.010;2022-11-14T06:18:51;48.78;;;21.60;;
41309;SDS011;27057;51.438;-0.010;2022-11-14T06:21:37;38.60;;;20.50;;
41309;SDS011;27057;51.438;-0.010;2022-11-14T06:24:23;39.22;;;19.42;;
41309;SDS011;27057;51.438;-0.010;2022-11-14T06:27:09;46.08;;;22.27;;
41309;SDS011;27057;51.438;-0.010;2022-11-14T06:29:55;53.25;;;21.60;;
41309;SDS011;27057;51.438;-0.010;2022-11-14T06:32:41;46.50;;;23.02;;
41309;SDS011;27057;51.438;-0.010;2022-11-14T06:35:27;42.85;;;21.73;;
41309;SDS011;27057;51.438;-0.010;2022-11-14T06:38:13;36.63;;;19.10;;
41309;SDS011;27057;51.438;-0.010;2022-11-14T06:43:54;57.15;;;24.17;;
41309;SDS011;27057;51.438;-0.010;2022-11-14T06:46:39;49.97;;;21.98;;
41309;SDS011;27057;51.438;-0.010;2022-11-14T06:49:25;46.75;;;21.60;;
41309;SDS011;27057;51.438;-0.010;2022-11-14T06:52:12;46.15;;;21.45;;
41309;SDS011;27057;51.438;-0.010;2022-11-14T06:54:58;40.53;;;20.38;;
41309;SDS011;27057;51.438;-0.010;2022-11-14T06:57:44;42.03;;;19.90;;
41309;SDS011;27057;51.438;-0.010;2022-11-14T07:00:29;35.13;;;19.45;;
41309;SDS011;27057;51.438;-0.010;2022-11-14T07:03:15;45.72;;;21.42;;
41309;SDS011;27057;51.438;-0.010;2022-11-14T07:06:02;43.75;;;20.15;;
41309;SDS011;27057;51.438;-0.010;2022-11-14T07:08:50;43.30;;;20.98;;
41309;SDS011;27057;51.438;-0.010;2022-11-14T07:11:36;49.80;;;21.42;;
41309;SDS011;27057;51.438;-0.010;2022-11-14T07:14:22;37.80;;;18.90;;
41309;SDS011;27057;51.438;-0.010;2022-11-14T07:17:09;69.90;;;22.80;;
41309;SDS011;27057;51.438;-0.010;2022-11-14T07:19:55;72.55;;;22.90;;
41309;SDS011;27057;51.438;-0.010;2022-11-14T07:22:41;127.18;;;22.92;;
41309;SDS011;27057;51.438;-0.010;2022-11-14T07:25:27;138.48;;;23.48;;
41309;SDS011;27057;51.438;-0.010;2022-11-14T07:28:13;120.85;;;22.13;;
41309;SDS011;27057;51.438;-0.010;2022-11-14T07:31:01;151.07;;;23.40;;
41309;SDS011;27057;51.438;-0.010;2022-11-14T07:33:48;93.97;;;20.05;;
41309;SDS011;27057;51.438;-0.010;2022-11-14T07:36:34;116.78;;;20.48;;
41309;SDS011;27057;51.438;-0.010;2022-11-14T07:39:20;121.75;;;21.13;;
41309;SDS011;27057;51.438;-0.010;2022-11-14T07:42:06;127.45;;;18.45;;
41309;SDS011;27057;51.438;-0.010;2022-11-14T07:44:51;108.82;;;17.48;;
41309;SDS011;27057;51.438;-0.010;2022-11-14T07:47:37;81.78;;;15.23;;
41309;SDS011;27057;51.438;-0.010;2022-11-14T07:50:24;113.88;;;16.50;;
41309;SDS011;27057;51.438;-0.010;2022-11-14T07:53:10;121.55;;;16.48;;
41309;SDS011;27057;51.438;-0.010;2022-11-14T07:55:56;83.93;;;17.48;;
41309;SDS011;27057;51.438;-0.010;2022-11-14T07:58:46;114.45;;;19.60;;
41309;SDS011;27057;51.438;-0.010;2022-11-14T08:01:32;73.25;;;17.10;;
41309;SDS011;27057;51.438;-0.010;2022-11-14T08:04:17;57.95;;;17.73;;
41309;SDS011;27057;51.438;-0.010;2022-11-14T08:07:03;49.80;;;19.42;;
41309;SDS011;27057;51.438;-0.010;2022-11-14T08:09:49;54.40;;;16.48;;
41309;SDS011;27057;51.438;-0.010;2022-11-14T08:12:35;61.17;;;17.70;;
41309;SDS011;27057;51.438;-0.010;2022-11-14T08:15:23;73.95;;;19.23;;
41309;SDS011;27057;51.438;-0.010;2022-11-14T08:18:09;80.50;;;17.13;;
41309;SDS011;27057;51.438;-0.010;2022-11-14T08:20:55;52.92;;;14.25;;
41309;SDS011;27057;51.438;-0.010;2022-11-14T08:23:42;51.22;;;16.55;;
41309;SDS011;27057;51.438;-0.010;2022-11-14T08:26:29;42.50;;;15.27;;
41309;SDS011;27057;51.438;-0.010;2022-11-14T08:29:18;53.70;;;14.75;;
41309;SDS011;27057;51.438;-0.010;2022-11-14T08:32:05;60.85;;;15.20;;
41309;SDS011;27057;51.438;-0.010;2022-11-14T08:34:51;35.58;;;11.35;;
41309;SDS011;27057;51.438;-0.010;2022-11-14T08:37:37;51.53;;;14.27;;
41309;SDS011;27057;51.438;-0.010;2022-11-14T08:40:23;29.95;;;10.05;;
41309;SDS011;27057;51.438;-0.010;2022-11-14T08:43:09;89.72;;;12.85;;
41309;SDS011;27057;51.438;-0.010;2022-11-14T08:45:57;60.53;;;13.10;;
41309;SDS011;27057;51.438;-0.010;2022-11-14T08:48:46;60.80;;;14.60;;
41309;SDS011;27057;51.438;-0.010;2022-11-14T08:54:20;74.90;;;12.20;;
41309;SDS011;27057;51.438;-0.010;2022-11-14T08:57:06;60.65;;;11.13;;
41309;SDS011;27057;51.438;-0.010;2022-11-14T08:59:52;53.30;;;12.02;;
41309;SDS011;27057;51.438;-0.010;2022-11-14T09:02:39;41.03;;;12.05;;
41309;SDS011;27057;51.438;-0.010;2022-11-14T09:05:25;65.93;;;12.15;;
41309;SDS011;27057;51.438;-0.010;2022-11-14T09:08:11;83.75;;;13.10;;
41309;SDS011;27057;51.438;-0.010;2022-11-14T09:11:00;34.80;;;12.15;;
41309;SDS011;27057;51.438;-0.010;2022-11-14T09:13:50;55.58;;;12.02;;
41309;SDS011;27057;51.438;-0.010;2022-11-14T09:16:36;66.97;;;13.80;;
41309;SDS011;27057;51.438;-0.010;2022-11-14T09:19:22;86.22;;;12.95;;
41309;SDS011;27057;51.438;-0.010;2022-11-14T09:22:08;40.60;;;12.18;;
41309;SDS011;27057;51.438;-0.010;2022-11-14T09:24:54;54.25;;;12.23;;
41309;SDS011;27057;51.438;-0.010;2022-11-14T09:27:40;71.85;;;12.70;;
41309;SDS011;27057;51.438;-0.010;2022-11-14T09:30:26;112.55;;;14.10;;
41309;SDS011;27057;51.438;-0.010;2022-11-14T09:33:12;118.90;;;14.73;;
41309;SDS011;27057;51.438;-0.010;2022-11-14T09:35:58;46.97;;;11.13;;
41309;SDS011;27057;51.438;-0.010;2022-11-14T09:38:45;118.00;;;16.77;;
41309;SDS011;27057;51.438;-0.010;2022-11-14T09:44:37;69.13;;;13.38;;
41309;SDS011;27057;51.438;-0.010;2022-11-14T09:50:25;127.00;;;15.45;;
41309;SDS011;27057;51.438;-0.010;2022-11-14T09:53:20;65.90;;;14.68;;
41309;SDS011;27057;51.438;-0.010;2022-11-14T09:56:18;132.02;;;17.30;;
41309;SDS011;27057;51.438;-0.010;2022-11-14T09:59:12;67.88;;;16.17;;
41309;SDS011;27057;51.438;-0.010;2022-11-14T10:02:13;73.55;;;17.55;;
41309;SDS011;27057;51.438;-0.010;2022-11-14T10:05:38;123.07;;;18.50;;
41309;SDS011;27057;51.438;-0.010;2022-11-14T10:20:54;43.78;;;19.88;;
41309;SDS011;27057;51.438;-0.010;2022-11-14T10:23:50;48.60;;;18.50;;
41309;SDS011;27057;51.438;-0.010;2022-11-14T10:35:39;51.40;;;20.17;;
41309;SDS011;27057;51.438;-0.010;2022-11-14T10:38:50;41.50;;;18.38;;
41309;SDS011;27057;51.438;-0.010;2022-11-14T10:41:41;41.35;;;18.15;;
41309;SDS011;27057;51.438;-0.010;2022-11-14T10:44:46;47.17;;;17.23;;
41309;SDS011;27057;51.438;-0.010;2022-11-14T10:47:39;36.13;;;17.92;;
41309;SDS011;27057;51.438;-0.010;2022-11-14T10:50:31;46.42;;;18.88;;
41309;SDS011;27057;51.438;-0.010;2022-11-14T10:56:33;43.42;;;17.45;;
41309;SDS011;27057;51.438;-0.010;2022-11-14T10:59:19;37.35;;;17.35;;
41309;SDS011;27057;51.438;-0.010;2022-11-14T11:02:05;35.15;;;14.65;;
41309;SDS011;27057;51.438;-0.010;2022-11-14T11:04:51;31.15;;;13.90;;
41309;SDS011;27057;51.438;-0.010;2022-11-14T11:07:43;31.52;;;14.63;;
41309;SDS011;27057;51.438;-0.010;2022-11-14T11:11:12;31.92;;;15.82;;
41309;SDS011;27057;51.438;-0.010;2022-11-14T11:14:17;24.83;;;13.27;;
41309;SDS011;27057;51.438;-0.010;2022-11-14T11:17:07;35.13;;;14.02;;
41309;SDS011;27057;51.438;-0.010;2022-11-14T11:23:25;34.35;;;14.82;;
41309;SDS011;27057;51.438;-0.010;2022-11-14T11:26:16;34.75;;;14.38;;
41309;SDS011;27057;51.438;-0.010;2022-11-14T11:32:00;33.47;;;15.68;;
41309;SDS011;27057;51.438;-0.010;2022-11-14T11:34:46;33.75;;;15.40;;
41309;SDS011;27057;51.438;-0.010;2022-11-14T11:40:26;39.30;;;16.90;;
41309;SDS011;27057;51.438;-0.010;2022-11-14T11:55:41;35.13;;;15.90;;
41309;SDS011;27057;51.438;-0.010;2022-11-14T11:58:32;31.30;;;15.65;;
41309;SDS011;27057;51.438;-0.010;2022-11-14T12:01:21;26.40;;;14.70;;
41309;SDS011;27057;51.438;-0.010;2022-11-14T12:04:07;32.15;;;15.48;;
41309;SDS011;27057;51.438;-0.010;2022-11-14T12:07:03;31.77;;;14.50;;
41309;SDS011;27057;51.438;-0.010;2022-11-14T12:09:56;26.42;;;14.18;;
41309;SDS011;27057;51.438;-0.010;2022-11-14T12:31:31;31.73;;;16.83;;
41309;SDS011;27057;51.438;-0.010;2022-11-14T12:34:24;32.47;;;18.20;;
41309;SDS011;27057;51.438;-0.010;2022-11-14T12:37:15;35.17;;;17.42;;
41309;SDS011;27057;51.438;-0.010;2022-11-14T12:40:05;33.58;;;16.92;;
41309;SDS011;27057;51.438;-0.010;2022-11-14T12:43:02;37.10;;;18.37;;
41309;SDS011;27057;51.438;-0.010;2022-11-14T12:46:09;29.60;;;15.80;;
41309;SDS011;27057;51.438;-0.010;2022-11-14T12:48:57;29.92;;;16.50;;
41309;SDS011;27057;51.438;-0.010;2022-11-14T12:51:47;34.10;;;17.90;;
41309;SDS011;27057;51.438;-0.010;2022-11-14T12:54:41;35.80;;;17.95;;
41309;SDS011;27057;51.438;-0.010;2022-11-14T12:57:38;36.22;;;17.75;;
41309;SDS011;27057;51.438;-0.010;2022-11-14T13:06:41;36.92;;;18.05;;
41309;SDS011;27057;51.438;-0.010;2022-11-14T13:16:28;33.97;;;18.20;;
41309;SDS011;27057;51.438;-0.010;2022-11-14T13:19:33;32.13;;;17.45;;
41309;SDS011;27057;51.438;-0.010;2022-11-14T13:22:39;35.60;;;16.33;;
41309;SDS011;27057;51.438;-0.010;2022-11-14T13:25:29;28.88;;;14.70;;
41309;SDS011;27057;51.438;-0.010;2022-11-14T13:31:21;36.92;;;15.25;;
41309;SDS011;27057;51.438;-0.010;2022-11-14T13:40:44;31.33;;;14.90;;
41309;SDS011;27057;51.438;-0.010;2022-11-14T13:52:47;27.73;;;14.05;;
41309;SDS011;27057;51.438;-0.010;2022-11-14T13:59:01;27.60;;;13.50;;
41309;SDS011;27057;51.438;-0.010;2022-11-14T14:11:46;30.80;;;14.35;;
41309;SDS011;27057;51.438;-0.010;2022-11-14T14:20:31;28.20;;;15.55;;
41309;SDS011;27057;51.438;-0.010;2022-11-14T14:26:25;30.67;;;16.45;;
41309;SDS011;27057;51.438;-0.010;2022-11-14T14:32:31;33.63;;;16.65;;
41309;SDS011;27057;51.438;-0.010;2022-11-14T14:38:10;34.40;;;16.48;;
41309;SDS011;27057;51.438;-0.010;2022-11-14T14:40:57;32.05;;;15.73;;
41309;SDS011;27057;51.438;-0.010;2022-11-14T14:43:49;32.15;;;15.93;;
41309;SDS011;27057;51.438;-0.010;2022-11-14T14:46:37;30.00;;;15.48;;
41309;SDS011;27057;51.438;-0.010;2022-11-14T14:49:31;33.42;;;14.68;;
41309;SDS011;27057;51.438;-0.010;2022-11-14T14:52:27;29.97;;;16.53;;
41309;SDS011;27057;51.438;-0.010;2022-11-14T14:55:21;32.38;;;15.90;;
41309;SDS011;27057;51.438;-0.010;2022-11-14T14:58:12;30.60;;;14.87;;
41309;SDS011;27057;51.438;-0.010;2022-11-14T15:01:15;32.88;;;17.40;;
41309;SDS011;27057;51.438;-0.010;2022-11-14T15:04:07;35.00;;;15.98;;
41309;SDS011;27057;51.438;-0.010;2022-11-14T15:06:56;33.65;;;17.83;;
41309;SDS011;27057;51.438;-0.010;2022-11-14T15:12:42;31.88;;;16.42;;
41309;SDS011;27057;51.438;-0.010;2022-11-14T15:15:28;31.45;;;16.98;;
41309;SDS011;27057;51.438;-0.010;2022-11-14T15:18:22;30.52;;;16.63;;
41309;SDS011;27057;51.438;-0.010;2022-11-14T15:24:14;28.63;;;16.60;;
41309;SDS011;27057;51.438;-0.010;2022-11-14T15:27:14;30.30;;;17.02;;
41309;SDS011;27057;51.438;-0.010;2022-11-14T15:30:03;29.20;;;17.25;;
41309;SDS011;27057;51.438;-0.010;2022-11-14T15:32:55;32.25;;;17.48;;
41309;SDS011;27057;51.438;-0.010;2022-11-14T15:35:42;33.03;;;18.77;;
41309;SDS011;27057;51.438;-0.010;2022-11-14T15:38:28;36.55;;;19.33;;
41309;SDS011;27057;51.438;-0.010;2022-11-14T15:41:29;50.33;;;20.77;;
41309;SDS011;27057;51.438;-0.010;2022-11-14T15:53:01;41.70;;;22.10;;
41309;SDS011;27057;51.438;-0.010;2022-11-14T15:55:50;41.33;;;20.15;;
41309;SDS011;27057;51.438;-0.010;2022-11-14T15:58:36;36.80;;;20.58;;
41309;SDS011;27057;51.438;-0.010;2022-11-14T16:01:22;45.80;;;22.42;;
41309;SDS011;27057;51.438;-0.010;2022-11-14T16:04:16;44.70;;;22.20;;
41309;SDS011;27057;51.438;-0.010;2022-11-14T16:07:04;48.72;;;22.23;;
41309;SDS011;27057;51.438;-0.010;2022-11-14T16:09:51;52.53;;;25.00;;
41309;SDS011;27057;51.438;-0.010;2022-11-14T16:12:37;47.15;;;23.75;;
41309;SDS011;27057;51.438;-0.010;2022-11-14T16:15:23;47.40;;;25.10;;
41309;SDS011;27057;51.438;-0.010;2022-11-14T16:18:09;54.38;;;24.88;;
41309;SDS011;27057;51.438;-0.010;2022-11-14T16:23:43;55.00;;;23.67;;
41309;SDS011;27057;51.438;-0.010;2022-11-14T16:26:29;56.90;;;25.95;;
41309;SDS011;27057;51.438;-0.010;2022-11-14T16:29:17;56.35;;;26.70;;
41309;SDS011;27057;51.438;-0.010;2022-11-14T16:32:03;56.30;;;27.48;;
41309;SDS011;27057;51.438;-0.010;2022-11-14T16:34:49;78.15;;;28.95;;
41309;SDS011;27057;51.438;-0.010;2022-11-14T16:37:35;65.15;;;30.05;;
41309;SDS011;27057;51.438;-0.010;2022-11-14T16:40:22;61.88;;;29.10;;
41309;SDS011;27057;51.438;-0.010;2022-11-14T16:43:12;62.42;;;28.65;;
41309;SDS011;27057;51.438;-0.010;2022-11-14T16:46:05;68.63;;;29.33;;
41309;SDS011;27057;51.438;-0.010;2022-11-14T16:48:53;63.00;;;27.50;;
41309;SDS011;27057;51.438;-0.010;2022-11-14T16:51:40;64.80;;;29.25;;
41309;SDS011;27057;51.438;-0.010;2022-11-14T16:54:35;68.35;;;27.50;;
41309;SDS011;27057;51.438;-0.010;2022-11-14T16:57:21;81.75;;;31.25;;
41309;SDS011;27057;51.438;-0.010;2022-11-14T17:00:08;77.18;;;29.67;;
41309;SDS011;27057;51.438;-0.010;2022-11-14T17:02:56;66.75;;;30.25;;
41309;SDS011;27057;51.438;-0.010;2022-11-14T17:05:43;70.07;;;29.50;;
41309;SDS011;27057;51.438;-0.010;2022-11-14T17:08:29;83.63;;;30.70;;
41309;SDS011;27057;51.438;-0.010;2022-11-14T17:11:15;69.80;;;30.73;;
41309;SDS011;27057;51.438;-0.010;2022-11-14T17:14:02;73.25;;;31.90;;
41309;SDS011;27057;51.438;-0.010;2022-11-14T17:16:47;87.82;;;31.88;;
41309;SDS011;27057;51.438;-0.010;2022-11-14T17:19:33;72.35;;;32.75;;
41309;SDS011;27057;51.438;-0.010;2022-11-14T17:22:19;73.07;;;32.50;;
41309;SDS011;27057;51.438;-0.010;2022-11-14T17:25:05;90.40;;;35.92;;
41309;SDS011;27057;51.438;-0.010;2022-11-14T17:27:51;79.13;;;34.53;;
41309;SDS011;27057;51.438;-0.010;2022-11-14T17:30:40;87.82;;;36.03;;
41309;SDS011;27057;51.438;-0.010;2022-11-14T17:33:27;83.05;;;35.70;;
41309;SDS011;27057;51.438;-0.010;2022-11-14T17:36:14;97.40;;;37.00;;
41309;SDS011;27057;51.438;-0.010;2022-11-14T17:39:00;87.28;;;37.45;;
41309;SDS011;27057;51.438;-0.010;2022-11-14T17:41:45;90.53;;;36.10;;
41309;SDS011;27057;51.438;-0.010;2022-11-14T17:44:31;69.72;;;32.83;;
41309;SDS011;27057;51.438;-0.010;2022-11-14T17:47:18;84.88;;;35.30;;
41309;SDS011;27057;51.438;-0.010;2022-11-14T17:50:04;82.22;;;35.88;;
41309;SDS011;27057;51.438;-0.010;2022-11-14T17:52:51;80.47;;;37.85;;
41309;SDS011;27057;51.438;-0.010;2022-11-14T17:55:37;98.38;;;40.67;;
41309;SDS011;27057;51.438;-0.010;2022-11-14T17:58:23;90.55;;;39.47;;
41309;SDS011;27057;51.438;-0.010;2022-11-14T18:01:09;90.18;;;40.95;;
41309;SDS011;27057;51.438;-0.010;2022-11-14T18:06:51;79.78;;;36.53;;
41309;SDS011;27057;51.438;-0.010;2022-11-14T18:09:37;85.80;;;37.87;;
41309;SDS011;27057;51.438;-0.010;2022-11-14T18:12:24;89.03;;;37.55;;
41309;SDS011;27057;51.438;-0.010;2022-11-14T18:15:09;89.72;;;37.72;;
41309;SDS011;27057;51.438;-0.010;2022-11-14T18:17:56;83.85;;;36.05;;
41309;SDS011;27057;51.438;-0.010;2022-11-14T18:20:42;98.93;;;39.65;;
41309;SDS011;27057;51.438;-0.010;2022-11-14T18:23:28;107.82;;;45.88;;
41309;SDS011;27057;51.438;-0.010;2022-11-14T18:26:15;95.53;;;40.80;;
41309;SDS011;27057;51.438;-0.010;2022-11-14T18:29:01;84.20;;;36.10;;
41309;SDS011;27057;51.438;-0.010;2022-11-14T18:31:48;84.32;;;35.17;;
41309;SDS011;27057;51.438;-0.010;2022-11-14T18:34:34;71.75;;;28.75;;
41309;SDS011;27057;51.438;-0.010;2022-11-14T18:37:24;64.28;;;31.83;;
41309;SDS011;27057;51.438;-0.010;2022-11-14T18:40:10;68.10;;;30.60;;
41309;SDS011;27057;51.438;-0.010;2022-11-14T18:43:00;60.38;;;27.02;;
41309;SDS011;27057;51.438;-0.010;2022-11-14T18:45:46;56.63;;;24.30;;
41309;SDS011;27057;51.438;-0.010;2022-11-14T18:48:33;53.63;;;25.52;;
41309;SDS011;27057;51.438;-0.010;2022-11-14T18:51:20;53.88;;;25.02;;